createdAt,value
2019-01-23T00:01:01.231Z,96.77
2019-01-23T00:05:06.393Z,94.17
2019-01-23T00:09:11.476Z,101.63
2019-01-23T00:13:16.504Z,99.23
2019-01-23T00:17:21.546Z,103.87
2019-01-23T00:21:26.673Z,88.63
2019-01-23T00:25:31.765Z,96.03
2019-01-23T00:29:37.003Z,92.90
2019-01-23T00:33:41.983Z,92.20
2019-01-23T00:37:47.086Z,83.63
2019-01-23T00:41:52.180Z,95.50
2019-01-23T00:45:57.425Z,95.30
2019-01-23T00:50:02.452Z,82.90
2019-01-23T00:54:07.770Z,85.97
2019-01-23T00:58:12.832Z,94.77
2019-01-23T01:02:17.935Z,92.67
2019-01-23T01:06:23.942Z,95.63
2019-01-23T01:10:29.078Z,93.47
2019-01-23T01:14:34.131Z,92.77
2019-01-23T01:18:40.137Z,82.73
2019-01-23T01:22:45.239Z,87.03
2019-01-23T01:26:50.296Z,82.30
2019-01-23T01:30:55.377Z,81.07
2019-01-23T01:35:00.413Z,85.73
2019-01-23T01:39:08.526Z,85.00
2019-01-23T01:43:13.621Z,85.13
2019-01-23T01:47:18.726Z,82.07
2019-01-23T01:51:24.112Z,82.70
2019-01-23T01:55:29.222Z,77.03
2019-01-23T01:59:34.274Z,84.63
2019-01-23T02:03:39.398Z,80.87
2019-01-23T02:07:44.543Z,81.43
2019-01-23T02:11:50.629Z,74.23
2019-01-23T02:15:55.676Z,81.07
2019-01-23T02:20:00.807Z,83.37
2019-01-23T02:24:05.901Z,78.02
2019-01-23T02:28:11.260Z,69.90
2019-01-23T02:32:16.386Z,80.37
2019-01-23T02:36:21.516Z,80.80
2019-01-23T02:40:26.586Z,81.80
2019-01-23T02:44:31.740Z,79.43
2019-01-23T02:48:38.184Z,73.00
2019-01-23T02:52:43.295Z,90.20
2019-01-23T02:56:48.369Z,84.67
2019-01-23T03:00:53.359Z,87.63
2019-01-23T03:04:59.093Z,91.70
2019-01-23T03:09:05.663Z,88.67
2019-01-23T03:13:10.720Z,90.57
2019-01-23T03:17:16.116Z,90.90
2019-01-23T03:21:21.249Z,79.23
2019-01-23T03:25:26.401Z,87.13
2019-01-23T03:29:31.798Z,103.13
2019-01-23T03:33:36.917Z,98.67
2019-01-23T03:37:42.029Z,104.20
2019-01-23T03:41:47.155Z,105.00
2019-01-23T03:45:52.221Z,99.33
2019-01-23T03:49:57.402Z,106.07
2019-01-23T03:54:02.438Z,98.77
2019-01-23T03:58:07.818Z,105.33
2019-01-23T04:02:12.972Z,103.17
2019-01-23T04:06:18.049Z,99.03
2019-01-23T04:10:23.062Z,94.73
2019-01-23T04:14:28.244Z,104.33
2019-01-23T04:18:33.317Z,96.40
2019-01-23T04:22:38.452Z,98.33
2019-01-23T04:26:43.446Z,99.03
2019-01-23T04:30:48.539Z,100.70
2019-01-23T04:34:53.609Z,96.60
2019-01-23T04:38:58.709Z,98.37
2019-01-23T04:43:03.812Z,98.57
2019-01-23T04:47:09.164Z,110.13
2019-01-23T04:51:35.479Z,101.33
2019-01-23T04:55:41.105Z,98.40
2019-01-23T04:59:46.925Z,99.00
2019-01-23T05:03:52.234Z,101.23
2019-01-23T05:07:57.327Z,102.60
2019-01-23T05:12:02.374Z,103.00
2019-01-23T05:16:07.414Z,104.13
2019-01-23T05:20:12.734Z,105.50
2019-01-23T05:24:17.826Z,105.07
2019-01-23T05:28:22.865Z,99.60
2019-01-23T05:32:27.891Z,103.00
2019-01-23T05:36:32.938Z,105.60
2019-01-23T05:40:38.218Z,103.23
2019-01-23T05:44:43.273Z,108.10
2019-01-23T05:48:48.346Z,103.80
2019-01-23T05:52:54.807Z,102.43
2019-01-23T05:56:59.748Z,103.13
2019-01-23T06:01:04.930Z,92.47
2019-01-23T06:05:10.128Z,99.47
2019-01-23T06:09:15.282Z,103.23
2019-01-23T06:13:20.310Z,104.00
2019-01-23T06:17:25.488Z,108.83
2019-01-23T06:21:30.614Z,94.47
2019-01-23T06:25:35.798Z,94.53
2019-01-23T06:29:40.843Z,100.90
2019-01-23T06:33:46.318Z,96.13
2019-01-23T06:37:51.532Z,110.97
2019-01-23T06:41:56.676Z,106.50
2019-01-23T06:46:02.593Z,113.13
2019-01-23T06:50:10.092Z,103.50
2019-01-23T06:54:15.231Z,106.50
2019-01-23T06:58:20.361Z,90.10
2019-01-23T07:02:25.631Z,91.43
2019-01-23T07:06:30.709Z,89.63
2019-01-23T07:10:35.802Z,85.63
2019-01-23T07:14:40.921Z,88.40
2019-01-23T07:18:46.068Z,85.87
2019-01-23T07:22:51.155Z,81.90
2019-01-23T07:26:56.266Z,80.70
2019-01-23T07:31:01.376Z,93.27
2019-01-23T07:35:06.586Z,86.50
2019-01-23T07:39:11.860Z,83.17
2019-01-23T07:43:17.056Z,79.47
2019-01-23T07:47:22.200Z,84.10
2019-01-23T07:51:27.388Z,78.70
2019-01-23T07:55:32.427Z,77.10
2019-01-23T07:59:37.590Z,82.03
2019-01-23T08:03:44.133Z,83.43
2019-01-23T08:07:50.617Z,84.53
2019-01-23T08:11:55.701Z,80.60
2019-01-23T08:16:00.816Z,81.83
2019-01-23T08:20:08.455Z,85.60
2019-01-23T08:24:13.596Z,79.40
2019-01-23T08:28:18.756Z,88.10
2019-01-23T08:32:24.508Z,90.77
2019-01-23T08:36:29.804Z,87.67
2019-01-23T08:40:35.078Z,80.13
2019-01-23T08:44:40.260Z,81.53
2019-01-23T08:48:45.282Z,82.37
2019-01-23T08:52:50.435Z,82.70
2019-01-23T08:56:55.514Z,90.27
2019-01-23T09:01:00.713Z,94.40
2019-01-23T09:05:06.943Z,88.10
2019-01-23T09:09:12.426Z,87.63
2019-01-23T09:13:17.526Z,83.30
2019-01-23T09:17:22.606Z,85.53
2019-01-23T09:21:27.772Z,84.37
2019-01-23T09:25:32.914Z,92.90
2019-01-23T09:29:38.146Z,86.47
2019-01-23T09:34:08.449Z,80.60
2019-01-23T09:38:43.124Z,86.40
2019-01-23T09:43:05.377Z,86.27
2019-01-23T09:47:40.208Z,89.67
2019-01-23T09:52:17.758Z,81.80
2019-01-23T09:56:23.315Z,80.57
2019-01-23T10:00:31.700Z,77.63
2019-01-23T10:04:36.550Z,75.67
2019-01-23T10:08:41.746Z,75.33
2019-01-23T10:12:46.876Z,74.13
2019-01-23T10:16:52.109Z,78.50
2019-01-23T10:20:57.632Z,79.33
2019-01-23T10:25:03.109Z,82.97
2019-01-23T10:29:10.859Z,83.43
2019-01-23T10:33:17.332Z,80.83
2019-01-23T10:37:22.554Z,82.57
2019-01-23T10:41:27.966Z,79.70
2019-01-23T10:45:33.332Z,75.63
2019-01-23T10:49:38.382Z,71.27
2019-01-23T10:53:43.515Z,71.43
2019-01-23T10:57:48.709Z,69.03
2019-01-23T11:01:53.830Z,68.60
2019-01-23T11:05:59.101Z,78.87
2019-01-23T11:10:05.613Z,77.87
2019-01-23T11:14:10.940Z,77.10
2019-01-23T11:18:16.374Z,75.17
2019-01-23T11:22:21.337Z,72.93
2019-01-23T11:26:26.454Z,76.20
2019-01-23T11:30:31.540Z,79.33
2019-01-23T11:34:36.646Z,77.47
2019-01-23T11:38:41.886Z,78.10
2019-01-23T11:42:47.007Z,81.47
2019-01-23T11:46:52.114Z,68.33
2019-01-23T11:50:57.089Z,74.47
2019-01-23T11:55:02.131Z,72.53
2019-01-23T11:59:07.182Z,70.00
2019-01-23T12:03:13.317Z,83.40
2019-01-23T12:07:18.558Z,73.13
2019-01-23T12:11:23.876Z,79.37
2019-01-23T12:15:30.146Z,75.20
2019-01-23T12:19:35.516Z,74.83
2019-01-23T12:23:40.563Z,71.20
2019-01-23T12:27:46.717Z,69.30
2019-01-23T12:31:51.803Z,67.53
2019-01-23T12:35:56.833Z,70.70
2019-01-23T12:40:02.413Z,64.93
2019-01-23T12:44:07.927Z,71.20
2019-01-23T12:48:13.068Z,61.90
2019-01-23T12:52:18.202Z,64.10
2019-01-23T12:56:23.359Z,67.03
2019-01-23T13:00:30.063Z,71.23
2019-01-23T13:04:35.280Z,62.70
2019-01-23T13:08:40.465Z,68.97
2019-01-23T13:12:46.023Z,64.33
2019-01-23T13:16:51.072Z,63.57
2019-01-23T13:20:56.126Z,63.77
2019-01-23T13:25:01.165Z,65.40
2019-01-23T13:29:06.469Z,64.47
2019-01-23T13:33:11.939Z,63.63
2019-01-23T13:37:16.991Z,61.87
2019-01-23T13:41:22.147Z,61.20
2019-01-23T13:45:27.233Z,60.10
2019-01-23T13:49:33.381Z,62.00
2019-01-23T13:53:38.578Z,64.33
2019-01-23T13:57:43.672Z,62.13
2019-01-23T14:01:48.806Z,62.90
2019-01-23T14:05:53.884Z,61.13
2019-01-23T14:09:59.306Z,62.27
2019-01-23T14:14:05.236Z,60.00
2019-01-23T14:18:11.093Z,63.03
2019-01-23T14:22:16.214Z,65.63
2019-01-23T14:26:21.311Z,64.27
2019-01-23T14:30:29.156Z,70.03
2019-01-23T14:34:34.219Z,64.43
2019-01-23T14:38:40.321Z,73.57
2019-01-23T14:42:45.386Z,67.97
2019-01-23T14:46:50.517Z,74.57
2019-01-23T14:50:56.689Z,68.20
2019-01-23T14:55:01.806Z,70.50
2019-01-23T15:03:10.212Z,70.97
2019-01-23T15:07:15.284Z,73.07
2019-01-23T15:11:20.388Z,74.33
2019-01-23T15:15:25.621Z,66.50
2019-01-23T15:19:30.733Z,77.17
2019-01-23T15:23:35.883Z,75.73
2019-01-23T15:27:40.970Z,70.27
2019-01-23T15:36:23.646Z,64.70
2019-01-23T15:40:31.321Z,69.93
2019-01-23T15:44:36.463Z,65.87
2019-01-23T15:48:41.566Z,68.03
2019-01-23T15:52:46.632Z,73.97
2019-01-23T15:56:53.352Z,78.90
2019-01-23T16:00:58.495Z,72.23
2019-01-23T16:05:14.861Z,74.93
2019-01-23T16:13:42.194Z,72.07
2019-01-23T16:18:02.730Z,75.03
2019-01-23T16:22:27.093Z,65.53
2019-01-23T16:35:19.072Z,58.63
2019-01-23T16:44:45.406Z,58.57
2019-01-23T16:48:50.509Z,60.67
2019-01-23T16:52:55.688Z,59.57
2019-01-23T16:57:00.670Z,57.40
2019-01-23T17:01:05.773Z,60.40
2019-01-23T17:09:49.231Z,57.07
2019-01-23T17:13:54.494Z,57.97
2019-01-23T17:17:59.735Z,59.10
2019-01-23T17:22:16.698Z,57.67
2019-01-23T17:26:21.822Z,57.87
2019-01-23T17:30:26.986Z,54.43
2019-01-23T17:34:32.169Z,56.23
2019-01-23T17:43:19.040Z,59.80
2019-01-23T17:51:54.968Z,59.80
2019-01-23T17:56:11.940Z,56.60
2019-01-23T18:04:39.624Z,142.57
2019-01-23T18:08:44.783Z,58.93
2019-01-23T18:12:49.889Z,65.60
2019-01-23T18:17:06.770Z,58.70
2019-01-23T18:21:12.966Z,60.77
2019-01-23T18:25:18.418Z,60.07
2019-01-23T18:29:35.163Z,60.13
2019-01-23T18:33:56.407Z,61.97
2019-01-23T18:38:39.657Z,71.25
2019-01-23T18:43:15.637Z,67.73
2019-01-23T18:47:59.158Z,66.67
2019-01-23T18:52:23.397Z,77.40
2019-01-23T18:56:28.511Z,66.23
2019-01-23T19:00:33.677Z,66.30
2019-01-23T19:04:38.836Z,71.50
2019-01-23T19:08:43.942Z,67.40
2019-01-23T19:12:49.137Z,64.87
2019-01-23T19:16:54.246Z,67.13
2019-01-23T19:21:18.473Z,76.30
2019-01-23T19:25:23.600Z,70.73
2019-01-23T19:29:28.648Z,69.23
2019-01-23T19:33:33.815Z,63.90
2019-01-23T19:41:56.424Z,110.00
2019-01-23T19:46:01.565Z,71.77
2019-01-23T19:50:08.263Z,73.60
2019-01-23T19:54:13.332Z,74.03
2019-01-23T19:58:18.460Z,71.83
2019-01-23T20:06:40.481Z,77.97
2019-01-23T20:15:16.644Z,75.30
2019-01-23T20:19:29.242Z,74.13
2019-01-23T20:23:34.737Z,78.77
2019-01-23T20:27:59.011Z,69.03
2019-01-23T20:32:16.078Z,79.07
2019-01-23T20:36:21.274Z,78.10
2019-01-23T20:40:26.338Z,78.83
2019-01-23T20:44:50.666Z,78.77
2019-01-23T20:48:55.860Z,74.77
2019-01-23T20:53:01.339Z,77.10
2019-01-23T20:57:06.590Z,81.73
2019-01-23T21:01:23.540Z,79.97
2019-01-23T21:05:40.063Z,81.40
2019-01-23T21:09:45.325Z,86.43
2019-01-23T21:13:50.555Z,82.50
2019-01-23T21:18:07.795Z,83.67
2019-01-23T21:22:12.885Z,83.73
2019-01-23T21:31:01.043Z,84.87
2019-01-23T21:35:06.380Z,81.90
2019-01-23T21:39:11.585Z,90.63
2019-01-23T21:43:35.787Z,81.03
2019-01-23T21:47:40.915Z,84.77
2019-01-23T21:51:46.077Z,89.20
2019-01-23T21:55:51.575Z,89.57
2019-01-23T21:59:56.670Z,89.57
2019-01-23T22:04:01.731Z,82.37
2019-01-23T22:12:56.724Z,89.23
2019-01-23T22:26:07.670Z,90.70
2019-01-23T22:30:21.121Z,92.53
2019-01-23T22:34:26.211Z,87.83
2019-01-23T22:38:31.277Z,93.10
2019-01-23T22:42:36.381Z,85.83
2019-01-23T22:46:41.539Z,95.90
2019-01-23T22:51:05.706Z,93.00
2019-01-23T22:55:11.265Z,87.67
2019-01-23T22:59:16.306Z,98.23
2019-01-23T23:03:21.932Z,98.67
2019-01-23T23:07:26.988Z,91.57
2019-01-23T23:20:31.472Z,88.87
2019-01-23T23:24:55.612Z,85.03
2019-01-23T23:33:17.949Z,104.07
2019-01-23T23:41:39.837Z,93.17
2019-01-23T23:45:44.898Z,91.90
2019-01-23T23:49:50.158Z,104.37
2019-01-23T23:58:24.916Z,100.53
